createdAt,value
2019-01-22T00:02:37.132Z,-3.67
2019-01-22T00:05:40.912Z,-3.64
2019-01-22T00:08:44.514Z,-3.60
2019-01-22T00:11:48.062Z,-3.65
2019-01-22T00:14:51.850Z,-3.66
2019-01-22T00:17:55.621Z,-3.65
2019-01-22T00:20:59.285Z,-3.66
2019-01-22T00:24:02.915Z,-3.62
2019-01-22T00:27:06.531Z,-3.55
2019-01-22T00:30:13.427Z,-3.58
2019-01-22T00:33:17.072Z,-3.61
2019-01-22T00:36:20.653Z,-3.59
2019-01-22T00:39:24.327Z,-3.65
2019-01-22T00:42:28.018Z,-3.57
2019-01-22T00:45:31.642Z,-3.64
2019-01-22T00:48:35.184Z,-3.67
2019-01-22T00:51:38.855Z,-3.66
2019-01-22T00:54:42.465Z,-3.58
2019-01-22T00:57:46.126Z,-3.51
2019-01-22T01:00:49.687Z,-3.46
2019-01-22T01:03:53.354Z,-3.51
2019-01-22T01:06:57.088Z,-3.56
2019-01-22T01:10:00.661Z,-3.56
2019-01-22T01:13:04.394Z,-3.61
2019-01-22T01:16:08.081Z,-3.62
2019-01-22T01:19:11.823Z,-3.66
2019-01-22T01:22:15.377Z,-3.63
2019-01-22T01:25:20.415Z,-3.62
2019-01-22T01:28:24.122Z,-3.69
2019-01-22T01:31:27.917Z,-3.92
2019-01-22T01:34:31.436Z,-4.05
2019-01-22T01:37:35.158Z,-4.12
2019-01-22T01:40:38.884Z,-4.26
2019-01-22T01:43:42.601Z,-4.24
2019-01-22T01:46:46.310Z,-4.34
2019-01-22T01:49:50.015Z,-4.28
2019-01-22T01:52:53.811Z,-4.24
2019-01-22T01:55:57.459Z,-4.15
2019-01-22T01:59:01.175Z,-4.08
2019-01-22T02:02:04.944Z,-4.14
2019-01-22T02:05:08.666Z,-4.41
2019-01-22T02:08:12.279Z,-4.54
2019-01-22T02:11:15.826Z,-4.61
2019-01-22T02:14:23.489Z,-4.51
2019-01-22T02:18:38.989Z,-4.56
2019-01-22T02:21:55.235Z,-4.67
2019-01-22T02:25:16.490Z,-4.73
2019-01-22T02:28:49.541Z,-4.69
2019-01-22T02:32:02.819Z,-4.73
2019-01-22T02:35:16.794Z,-4.81
2019-01-22T02:40:33.246Z,-4.66
2019-01-22T02:43:51.747Z,-4.62
2019-01-22T02:47:40.129Z,-4.60
2019-01-22T02:51:02.100Z,-4.64
2019-01-22T02:54:21.243Z,-4.73
2019-01-22T02:58:40.686Z,-4.62
2019-01-22T03:02:00.080Z,-4.54
2019-01-22T03:05:13.289Z,-4.73
2019-01-22T03:09:28.935Z,-4.54
2019-01-22T03:13:12.544Z,-4.47
2019-01-22T03:16:27.050Z,-4.37
2019-01-22T03:19:54.943Z,-4.19
2019-01-22T03:25:10.613Z,-4.15
2019-01-22T03:28:25.084Z,-4.12
2019-01-22T03:33:38.989Z,-4.20
2019-01-22T03:37:05.499Z,-4.25
2019-01-22T03:40:24.745Z,-4.23
2019-01-22T03:43:42.597Z,-4.18
2019-01-22T03:47:07.590Z,-4.19
2019-01-22T03:50:32.661Z,-4.29
2019-01-22T03:53:54.873Z,-4.15
2019-01-22T03:57:08.173Z,-4.12
2019-01-22T04:00:18.914Z,-4.07
2019-01-22T04:03:22.631Z,-3.96
2019-01-22T04:06:29.830Z,-3.94
2019-01-22T04:09:44.531Z,-3.90
2019-01-22T04:12:48.412Z,-3.87
2019-01-22T04:15:52.291Z,-3.79
2019-01-22T04:18:56.005Z,-3.77
2019-01-22T04:21:59.679Z,-3.72
2019-01-22T04:25:26.576Z,-3.75
2019-01-22T04:30:45.064Z,-3.72
2019-01-22T04:34:23.328Z,-3.66
2019-01-22T04:38:42.229Z,-3.72
2019-01-22T04:41:58.352Z,-3.79
2019-01-22T04:49:20.120Z,-3.76
2019-01-22T04:52:38.447Z,-3.82
2019-01-22T04:55:50.390Z,-3.84
2019-01-22T04:59:06.565Z,-3.86
2019-01-22T05:04:29.974Z,-3.90
2019-01-22T05:07:48.599Z,-3.95
2019-01-22T05:11:02.275Z,-3.95
2019-01-22T05:14:22.078Z,-3.93
2019-01-22T05:18:42.521Z,-3.96
2019-01-22T05:21:58.894Z,-4.06
2019-01-22T05:27:11.938Z,-4.05
2019-01-22T05:30:34.288Z,-4.19
2019-01-22T05:34:50.165Z,-4.15
2019-01-22T05:38:10.083Z,-4.21
2019-01-22T05:43:25.799Z,-4.17
2019-01-22T05:46:46.098Z,-4.24
2019-01-22T05:52:15.163Z,-4.34
2019-01-22T05:55:25.433Z,-4.45
2019-01-22T06:00:46.947Z,-4.34
2019-01-22T06:04:04.407Z,-4.34
2019-01-22T06:07:26.052Z,-4.42
2019-01-22T06:10:42.197Z,-4.39
2019-01-22T06:14:01.753Z,-4.35
2019-01-22T06:17:49.936Z,-4.29
2019-01-22T06:23:08.830Z,-4.35
2019-01-22T06:26:27.725Z,-4.23
2019-01-22T06:31:46.351Z,-4.11
2019-01-22T06:37:07.856Z,-4.28
2019-01-22T06:40:20.644Z,-4.20
2019-01-22T06:44:41.506Z,-4.29
2019-01-22T06:47:59.029Z,-4.35
2019-01-22T06:51:16.409Z,-4.45
2019-01-22T06:54:27.066Z,-4.42
2019-01-22T06:57:41.710Z,-4.40
2019-01-22T07:01:05.469Z,-4.43
2019-01-22T07:04:32.699Z,-4.34
2019-01-22T07:07:55.167Z,-4.35
2019-01-22T07:11:41.543Z,-4.37
2019-01-22T07:14:57.639Z,-4.34
2019-01-22T07:19:28.399Z,-4.34
2019-01-22T07:22:44.240Z,-4.28
2019-01-22T07:28:04.446Z,-4.19
2019-01-22T07:31:54.745Z,-4.09
2019-01-22T07:35:14.933Z,-4.02
2019-01-22T07:38:29.358Z,-3.93
2019-01-22T07:42:16.076Z,-4.00
2019-01-22T07:45:33.245Z,-3.87
2019-01-22T07:48:48.704Z,-3.77
2019-01-22T07:52:04.092Z,-3.72
2019-01-22T07:55:24.556Z,-3.62
2019-01-22T07:58:39.795Z,-3.62
2019-01-22T08:01:58.332Z,-3.58
2019-01-22T08:05:21.194Z,-3.51
2019-01-22T08:08:46.139Z,-3.49
2019-01-22T08:12:03.528Z,-3.55
2019-01-22T08:15:22.292Z,-3.44
2019-01-22T08:18:42.379Z,-3.36
2019-01-22T08:21:58.755Z,-3.46
2019-01-22T08:27:20.358Z,-3.37
2019-01-22T08:31:08.139Z,-3.32
2019-01-22T08:34:21.646Z,-3.23
2019-01-22T08:37:52.863Z,-3.15
2019-01-22T08:41:13.528Z,-3.16
2019-01-22T08:45:33.562Z,-3.08
2019-01-22T08:49:04.902Z,-2.93
2019-01-22T08:52:25.367Z,-2.82
2019-01-22T08:56:09.476Z,-2.82
2019-01-22T08:59:28.944Z,-2.69
2019-01-22T09:02:47.720Z,-2.69
2019-01-22T09:06:12.416Z,-2.66
2019-01-22T09:11:28.937Z,-2.60
2019-01-22T09:14:58.610Z,-2.52
2019-01-22T09:18:10.631Z,-2.41
2019-01-22T09:21:59.063Z,-2.41
2019-01-22T09:25:14.588Z,-2.38
2019-01-22T09:30:30.126Z,-2.32
2019-01-22T09:33:44.373Z,-2.12
2019-01-22T09:37:08.648Z,-2.06
2019-01-22T09:40:12.275Z,-2.00
2019-01-22T09:43:15.900Z,-2.06
2019-01-22T09:46:19.498Z,-1.93
2019-01-22T09:49:23.128Z,-2.03
2019-01-22T09:52:26.738Z,-2.03
2019-01-22T09:55:30.537Z,-1.95
2019-01-22T09:58:34.139Z,-1.84
2019-01-22T10:01:37.732Z,-1.96
2019-01-22T10:04:41.338Z,-1.84
2019-01-22T10:07:44.839Z,-1.64
2019-01-22T10:10:48.595Z,-1.72
2019-01-22T10:13:52.336Z,-1.71
2019-01-22T10:16:56.102Z,-1.60
2019-01-22T10:20:00.035Z,-1.60
2019-01-22T10:23:03.923Z,-1.63
2019-01-22T10:26:07.721Z,-1.60
2019-01-22T10:29:11.351Z,-1.65
2019-01-22T10:32:15.086Z,-1.61
2019-01-22T10:35:18.850Z,-1.52
2019-01-22T10:38:22.467Z,-1.31
2019-01-22T10:41:26.223Z,-1.37
2019-01-22T10:44:29.897Z,-1.46
2019-01-22T10:47:33.670Z,-1.28
2019-01-22T10:50:37.343Z,-1.27
2019-01-22T10:53:41.064Z,-1.26
2019-01-22T10:56:44.758Z,-1.20
2019-01-22T10:59:48.499Z,-1.07
2019-01-22T11:02:52.210Z,-1.03
2019-01-22T11:05:55.877Z,-0.91
2019-01-22T11:08:59.524Z,-0.82
2019-01-22T11:12:03.242Z,-0.69
2019-01-22T11:15:07.767Z,-0.55
2019-01-22T11:18:11.629Z,-0.37
2019-01-22T11:21:15.400Z,-0.18
2019-01-22T11:24:19.140Z,-0.16
2019-01-22T11:27:22.866Z,-0.09
2019-01-22T11:30:26.618Z,-0.07
2019-01-22T11:33:33.444Z,-0.15
2019-01-22T11:36:34.035Z,-0.02
2019-01-22T11:39:37.757Z,0.14
2019-01-22T11:42:41.347Z,0.15
2019-01-22T11:45:45.409Z,0.02
2019-01-22T11:48:49.486Z,0.07
2019-01-22T11:51:53.268Z,0.02
2019-01-22T11:54:56.900Z,0.04
2019-01-22T11:58:00.583Z,0.09
2019-01-22T12:01:04.518Z,0.18
2019-01-22T12:04:08.100Z,0.24
2019-01-22T12:07:11.735Z,0.13
2019-01-22T12:10:15.444Z,0.15
2019-01-22T12:13:19.174Z,0.12
2019-01-22T12:16:22.926Z,0.14
2019-01-22T12:19:26.548Z,0.11
2019-01-22T12:22:30.210Z,0.12
2019-01-22T12:25:34.845Z,0.20
2019-01-22T12:28:38.752Z,0.26
2019-01-22T12:31:42.613Z,0.28
2019-01-22T12:34:46.193Z,0.24
2019-01-22T12:37:49.852Z,0.13
2019-01-22T12:40:53.531Z,0.17
2019-01-22T12:43:57.317Z,0.19
2019-01-22T12:47:00.968Z,0.30
2019-01-22T12:50:04.776Z,0.28
2019-01-22T12:53:10.505Z,0.32
2019-01-22T12:56:14.315Z,0.21
2019-01-22T12:59:18.111Z,0.23
2019-01-22T13:02:22.610Z,0.22
2019-01-22T13:05:36.949Z,0.25
2019-01-22T13:08:40.679Z,0.31
2019-01-22T13:11:44.503Z,0.42
2019-01-22T13:14:48.427Z,0.42
2019-01-22T13:17:52.113Z,0.41
2019-01-22T13:20:55.918Z,0.40
2019-01-22T13:23:59.534Z,0.40
2019-01-22T13:27:03.280Z,0.41
2019-01-22T13:30:10.400Z,0.41
2019-01-22T13:33:14.162Z,0.39
2019-01-22T13:36:17.804Z,0.35
2019-01-22T13:39:21.498Z,0.39
2019-01-22T13:42:25.262Z,0.33
2019-01-22T13:45:29.810Z,0.29
2019-01-22T13:48:34.088Z,0.39
2019-01-22T13:51:37.767Z,0.33
2019-01-22T13:54:41.399Z,0.31
2019-01-22T13:57:45.049Z,0.28
2019-01-22T14:00:48.770Z,0.26
2019-01-22T14:03:52.430Z,0.29
2019-01-22T14:06:56.242Z,0.33
2019-01-22T14:10:00.041Z,0.27
2019-01-22T14:13:03.856Z,0.19
2019-01-22T14:16:07.602Z,0.26
2019-01-22T14:19:11.358Z,0.18
2019-01-22T14:22:15.177Z,0.18
2019-01-22T14:25:19.734Z,0.28
2019-01-22T14:28:23.654Z,0.32
2019-01-22T14:31:27.400Z,0.34
2019-01-22T14:34:31.038Z,0.28
2019-01-22T14:37:34.780Z,0.28
2019-01-22T14:40:38.548Z,0.30
2019-01-22T14:43:42.184Z,0.28
2019-01-22T14:46:45.859Z,0.29
2019-01-22T14:49:49.596Z,0.26
2019-01-22T14:52:53.255Z,0.34
2019-01-22T14:55:57.964Z,0.38
2019-01-22T14:59:01.660Z,0.46
2019-01-22T15:02:05.551Z,0.33
2019-01-22T15:05:09.380Z,0.27
2019-01-22T15:08:13.461Z,0.24
2019-01-22T15:11:27.239Z,0.23
2019-01-22T15:14:31.018Z,0.25
2019-01-22T15:17:43.577Z,0.27
2019-01-22T15:20:50.678Z,0.16
2019-01-22T15:23:54.779Z,0.16
2019-01-22T15:27:00.590Z,0.12
2019-01-22T15:30:05.807Z,0.08
2019-01-22T15:33:09.586Z,0.19
2019-01-22T15:36:13.262Z,0.17
2019-01-22T15:39:16.865Z,0.14
2019-01-22T15:42:20.514Z,0.07
2019-01-22T15:45:24.625Z,0.06
2019-01-22T15:48:29.509Z,-0.05
2019-01-22T15:51:33.250Z,-0.04
2019-01-22T15:54:37.004Z,-0.02
2019-01-22T15:57:41.171Z,0.02
2019-01-22T16:00:44.872Z,0.03
2019-01-22T16:03:48.370Z,-0.12
2019-01-22T16:06:51.876Z,-0.13
2019-01-22T16:09:55.476Z,-0.15
2019-01-22T16:12:59.182Z,-0.17
2019-01-22T16:16:02.741Z,-0.15
2019-01-22T16:19:06.394Z,-0.06
2019-01-22T16:22:09.916Z,-0.03
2019-01-22T16:25:13.702Z,-0.05
2019-01-22T16:28:17.333Z,-0.05
2019-01-22T16:31:20.945Z,-0.03
2019-01-22T16:34:24.524Z,0.00
2019-01-22T16:37:28.061Z,0.01
2019-01-22T16:40:31.664Z,0.18
2019-01-22T16:43:35.321Z,0.28
2019-01-22T16:46:38.927Z,0.44
2019-01-22T16:49:42.537Z,0.50
2019-01-22T16:52:46.189Z,0.52
2019-01-22T16:55:49.903Z,0.62
2019-01-22T16:58:53.591Z,0.78
2019-01-22T17:01:57.236Z,0.77
2019-01-22T17:05:00.864Z,0.74
2019-01-22T17:08:04.551Z,0.79
2019-01-22T17:11:08.186Z,0.81
2019-01-22T17:14:11.765Z,0.68
2019-01-22T17:17:16.036Z,0.48
2019-01-22T17:20:22.627Z,0.53
2019-01-22T17:23:27.396Z,0.51
2019-01-22T17:26:31.111Z,0.39
2019-01-22T17:29:36.743Z,0.33
2019-01-22T17:32:47.052Z,0.38
2019-01-22T17:35:51.630Z,0.36
2019-01-22T17:38:55.350Z,0.40
2019-01-22T17:41:59.010Z,0.46
2019-01-22T17:45:02.766Z,0.43
2019-01-22T17:48:06.618Z,0.38
2019-01-22T17:51:10.334Z,0.40
2019-01-22T17:54:13.993Z,0.38
2019-01-22T17:57:17.625Z,0.38
2019-01-22T18:00:23.636Z,0.40
2019-01-22T18:03:27.427Z,0.33
2019-01-22T18:06:31.075Z,0.27
2019-01-22T18:09:34.936Z,0.30
2019-01-22T18:12:38.590Z,0.36
2019-01-22T18:15:42.172Z,0.28
2019-01-22T18:18:46.404Z,0.33
2019-01-22T18:21:49.505Z,0.33
2019-01-22T18:24:53.135Z,0.22
2019-01-22T18:27:56.716Z,0.10
2019-01-22T18:31:00.252Z,0.13
2019-01-22T18:34:03.892Z,0.17
2019-01-22T18:37:07.426Z,0.16
2019-01-22T18:40:11.891Z,0.11
2019-01-22T18:43:15.492Z,0.11
2019-01-22T18:46:19.108Z,0.12
2019-01-22T18:49:22.714Z,0.03
2019-01-22T18:52:26.330Z,-0.02
2019-01-22T18:55:29.984Z,-0.08
2019-01-22T18:58:33.654Z,-0.03
2019-01-22T19:01:37.328Z,-0.14
2019-01-22T19:04:40.896Z,-0.22
2019-01-22T19:07:44.615Z,-0.23
2019-01-22T19:10:48.328Z,-0.26
2019-01-22T19:13:51.937Z,-0.33
2019-01-22T19:16:55.737Z,-0.40
2019-01-22T19:19:59.370Z,-0.31
2019-01-22T19:23:03.052Z,-0.44
2019-01-22T19:26:06.789Z,-0.42
2019-01-22T19:29:10.470Z,-0.49
2019-01-22T19:32:15.363Z,-0.57
2019-01-22T19:35:21.499Z,-0.67
2019-01-22T19:38:25.120Z,-0.66
2019-01-22T19:41:28.720Z,-0.71
2019-01-22T19:44:32.298Z,-0.75
2019-01-22T19:47:36.255Z,-0.76
2019-01-22T19:50:39.872Z,-0.71
2019-01-22T19:53:43.470Z,-0.70
2019-01-22T19:56:47.114Z,-0.68
2019-01-22T19:59:50.889Z,-0.74
2019-01-22T20:02:55.944Z,-0.81
2019-01-22T20:05:59.597Z,-0.82
2019-01-22T20:09:03.345Z,-0.90
2019-01-22T20:12:08.000Z,-0.93
2019-01-22T20:15:12.148Z,-0.91
2019-01-22T20:18:15.754Z,-0.97
2019-01-22T20:21:21.424Z,-0.97
2019-01-22T20:24:25.131Z,-0.91
2019-01-22T20:27:28.699Z,-0.92
2019-01-22T20:30:35.483Z,-1.06
2019-01-22T20:33:39.230Z,-1.14
2019-01-22T20:36:42.840Z,-1.05
2019-01-22T20:39:46.380Z,-1.09
2019-01-22T20:42:50.265Z,-1.13
2019-01-22T20:45:53.860Z,-1.16
2019-01-22T20:48:57.665Z,-1.19
2019-01-22T20:52:01.311Z,-1.11
2019-01-22T20:55:05.666Z,-1.10
2019-01-22T20:58:09.342Z,-1.09
2019-01-22T21:01:12.937Z,-1.14
2019-01-22T21:04:16.702Z,-1.21
2019-01-22T21:07:20.609Z,-1.21
2019-01-22T21:10:28.182Z,-1.20
2019-01-22T21:13:31.860Z,-1.19
2019-01-22T21:16:35.550Z,-1.15
2019-01-22T21:19:39.246Z,-1.03
2019-01-22T21:22:42.943Z,-0.95
2019-01-22T21:25:46.569Z,-0.91
2019-01-22T21:28:50.150Z,-0.86
2019-01-22T21:31:53.795Z,-0.81
2019-01-22T21:34:57.424Z,-0.81
2019-01-22T21:38:01.163Z,-0.85
2019-01-22T21:41:04.894Z,-0.79
2019-01-22T21:44:08.463Z,-0.81
2019-01-22T21:47:12.147Z,-0.87
2019-01-22T21:50:15.824Z,-0.85
2019-01-22T21:53:19.366Z,-0.79
2019-01-22T21:56:23.064Z,-0.72
2019-01-22T21:59:27.621Z,-0.75
2019-01-22T22:02:31.405Z,-0.70
2019-01-22T22:05:35.169Z,-0.78
2019-01-22T22:08:38.772Z,-0.85
2019-01-22T22:11:42.311Z,-0.80
2019-01-22T22:14:45.916Z,-0.94
2019-01-22T22:17:49.645Z,-0.87
2019-01-22T22:20:53.184Z,-0.84
2019-01-22T22:23:56.886Z,-0.81
2019-01-22T22:27:00.506Z,-0.82
2019-01-22T22:30:04.241Z,-0.81
2019-01-22T22:33:07.809Z,-0.80
2019-01-22T22:36:11.390Z,-0.81
2019-01-22T22:39:15.014Z,-0.77
2019-01-22T22:42:18.578Z,-0.77
2019-01-22T22:45:22.206Z,-0.78
2019-01-22T22:48:25.874Z,-0.72
2019-01-22T22:51:29.408Z,-0.71
2019-01-22T22:54:33.063Z,-0.68
2019-01-22T22:57:36.585Z,-0.63
2019-01-22T23:00:45.248Z,-0.61
2019-01-22T23:03:49.006Z,-0.59
2019-01-22T23:06:52.590Z,-0.58
2019-01-22T23:09:56.131Z,-0.52
2019-01-22T23:12:59.764Z,-0.48
2019-01-22T23:16:03.411Z,-0.50
2019-01-22T23:19:07.026Z,-0.59
2019-01-22T23:22:10.598Z,-0.63
2019-01-22T23:25:14.236Z,-0.67
2019-01-22T23:28:17.810Z,-0.66
2019-01-22T23:31:21.407Z,-0.74
2019-01-22T23:34:25.038Z,-0.77
2019-01-22T23:37:29.592Z,-0.83
2019-01-22T23:40:33.299Z,-0.87
2019-01-22T23:43:36.996Z,-0.89
2019-01-22T23:46:40.722Z,-0.90
2019-01-22T23:49:44.422Z,-0.96
2019-01-22T23:52:48.049Z,-1.00
2019-01-22T23:55:51.678Z,-0.99
2019-01-22T23:58:55.340Z,-1.01
